Flight Track Log - Related Links

Times and Time Zones

All times are in EDT time to prevent confusion due to time zone crossing. See the SWA1031 flight status page for this flight to view local times or setup timezone preferences in your user account.

Time Position Orientation Groundspeed Altitude Reporting Facility
EDT Latitude Longitude Course Direction KTS MPH feet Rate Location/Type
Tue 11:03:45 AM 39.8667 -104.5667 134° Southeast 222 255 7,200  Level Denver TRACON
Tue 11:04:45 AM 39.8167 -104.5000 134° Southeast 287 330 9,300 1,900 Climbing Denver TRACON
Tue 11:05:45 AM 39.7333 -104.5000 180° South 331 381 11,000 2,300 Climbing Denver TRACON
Tue 11:06:45 AM 39.6667 -104.5667 218° Southwest 344 396 13,900 2,467 Climbing Denver TRACON
Tue 11:07:15 AM 39.6289 -104.6086 221° Southwest 345 397 14,700 2,413 Climbing Denver Center
Tue 11:08:17 AM 39.5403 -104.6911 216° Southwest 360 414 17,600 2,129 Climbing Denver Center
Tue 11:09:19 AM 39.4558 -104.7703 216° Southwest 379 436 19,100 1,742 Climbing Denver Center
Tue 11:10:21 AM 39.3639 -104.8561 216° Southwest 379 436 21,200 1,790 Climbing Denver Center
Tue 11:11:23 AM 39.2750 -104.9394 216° Southwest 392 451 22,800 2,081 Climbing Denver Center
Tue 11:12:25 AM 39.1808 -105.0267 216° Southwest 386 444 25,500 2,516 Climbing Denver Center
Tue 11:13:27 AM 39.0942 -105.0933 211° Southwest 362 417 28,000 1,935 Climbing Denver Center
Tue 11:14:29 AM 39.0033 -105.1503 206° Southwest 363 418 29,500 1,403 Climbing Denver Center
Tue 11:15:31 AM 38.9150 -105.2108 208° Southwest 361 415 30,900 1,355 Climbing Denver Center
Tue 11:16:33 AM 38.8364 -105.2844 216° Southwest 351 404 32,300 1,452 Climbing Denver Center
Tue 11:17:35 AM 38.7533 -105.3817 222° Southwest 338 389 33,900 1,104 Climbing Denver Center
Tue 11:18:38 AM 38.6833 -105.4597 221° Southwest 334 384 34,600 576 Climbing Denver Center
Tue 11:19:40 AM 38.6097 -105.5408 221° Southwest 345 397 35,100 677 Climbing Denver Center
Tue 11:20:42 AM 38.5375 -105.6222 221° Southwest 347 399 36,000 435 Climbing Denver Center
Tue 11:21:44 AM 38.4653 -105.7047 222° Southwest 347 399 36,000  Level Denver Center
Tue 11:22:46 AM 38.3919 -105.7844 220° Southwest 347 399 36,000  Level Denver Center
Tue 11:23:48 AM 38.3075 -105.8794 221° Southwest 347 399 36,000  Level Denver Center
Tue 11:24:50 AM 38.2381 -105.9558 221° Southwest 346 398 36,000  Level Denver Center
Tue 11:25:52 AM 38.1578 -106.0456 221° Southwest 344 396 36,000  Level Denver Center
Tue 11:26:54 AM 38.0886 -106.1217 221° Southwest 344 396 36,000  Level Denver Center
Tue 11:27:56 AM 38.0081 -106.2111 221° Southwest 344 396 36,000  Level Denver Center
Tue 11:28:58 AM 37.9394 -106.2869 221° Southwest 343 395 36,000  Level Denver Center
Tue 11:30:00 AM 37.8589 -106.3753 221° Southwest 344 396 36,000  Level Denver Center
Tue 11:31:02 AM 37.7831 -106.4561 220° Southwest 346 398 36,000  Level Denver Center
Tue 11:32:04 AM 37.7144 -106.5317 221° Southwest 340 391 36,000  Level Denver Center
Tue 11:33:06 AM 37.6342 -106.6194 221° Southwest 342 394 36,000  Level Denver Center
Tue 11:34:08 AM 37.5644 -106.6933 220° Southwest 342 394 36,000  Level Denver Center
Tue 11:35:10 AM 37.4844 -106.7822 221° Southwest 342 394 36,000  Level Denver Center
Tue 11:36:13 AM 37.4156 -106.8569 221° Southwest 342 394 36,000  Level Denver Center
Tue 11:37:15 AM 37.3342 -106.9436 220° Southwest 344 396 36,000  Level Denver Center
Tue 11:38:17 AM 37.2642 -107.0175 220° Southwest 343 395 36,000  Level Denver Center
Tue 11:39:19 AM 37.1950 -107.0919 221° Southwest 342 394 36,000  Level Denver Center
Tue 11:40:21 AM 37.1128 -107.1794 220° Southwest 344 396 36,000  Level Denver Center
Tue 11:41:23 AM 37.0422 -107.2544 220° Southwest 346 398 36,000  Level Denver Center
Tue 11:42:25 AM 36.9611 -107.3422 221° Southwest 347 399 36,000  Level Denver Center
Tue 11:43:27 AM 36.8906 -107.4153 220° Southwest 344 396 36,000  Level Denver Center
Tue 11:44:29 AM 36.8078 -107.5025 220° Southwest 346 398 36,000  Level Denver Center
Tue 11:45:31 AM 36.7375 -107.5778 221° Southwest 347 399 36,000  Level Denver Center
Tue 11:46:33 AM 36.6536 -107.6628 219° Southwest 347 399 36,000  Level Denver Center
Tue 11:47:35 AM 36.5828 -107.7378 220° Southwest 349 402 36,000  Level Denver Center
Tue 11:48:37 AM 36.4986 -107.8264 220° Southwest 354 407 36,000  Level Denver Center
Tue 11:49:39 AM 36.4267 -107.9014 220° Southwest 353 406 36,000  Level Denver Center
Tue 11:50:41 AM 36.3539 -107.9764 220° Southwest 355 409 36,000  Level Denver Center
Tue 11:51:15 AM 36.3056 -108.0281 221° Southwest 356 410 36,000  Level Albuquerque Center
Tue 11:52:17 AM 36.2197 -108.1158 220° Southwest 357 411 36,000  Level Albuquerque Center
Tue 11:53:19 AM 36.1469 -108.1917 220° Southwest 356 410 36,000  Level Albuquerque Center
Tue 11:54:21 AM 36.0733 -108.2664 219° Southwest 356 410 36,000  Level Albuquerque Center
Tue 11:55:23 AM 35.9892 -108.3581 221° Southwest 358 412 36,000 -290 Level Albuquerque Center
Tue 11:56:25 AM 35.9200 -108.4408 224° Southwest 359 413 35,400 -774 Descending Albuquerque Center
Tue 11:57:27 AM 35.8394 -108.5372 224° Southwest 359 413 34,400 -677 Descending Albuquerque Center
Tue 11:58:29 AM 35.7697 -108.6219 225° Southwest 362 417 34,000 -194 Descending Albuquerque Center
Tue 11:59:31 AM 35.6856 -108.7208 224° Southwest 369 425 34,000  Level Albuquerque Center
Tue 12:00:33 PM 35.6119 -108.8067 223° Southwest 376 433 34,000  Level Albuquerque Center
Tue 12:01:35 PM 35.5392 -108.8925 224° Southwest 377 434 34,000  Level Albuquerque Center
Tue 12:02:37 PM 35.4539 -108.9928 224° Southwest 378 435 34,000  Level Albuquerque Center
Tue 12:03:39 PM 35.3808 -109.0772 223° Southwest 377 434 34,000  Level Albuquerque Center
Tue 12:04:41 PM 35.2961 -109.1764 224° Southwest 376 433 34,000  Level Albuquerque Center
Tue 12:05:43 PM 35.2242 -109.2611 224° Southwest 375 432 34,000  Level Albuquerque Center
Tue 12:06:45 PM 35.1394 -109.3589 223° Southwest 375 432 34,000  Level Albuquerque Center
Tue 12:07:47 PM 35.0669 -109.4433 224° Southwest 376 433 34,000  Level Albuquerque Center
Tue 12:08:49 PM 34.9806 -109.5425 223° Southwest 379 436 34,000  Level Albuquerque Center
Tue 12:09:51 PM 34.9069 -109.6286 224° Southwest 382 440 34,000  Level Albuquerque Center
Tue 12:10:53 PM 34.8208 -109.7261 223° Southwest 380 437 34,000  Level Albuquerque Center
Tue 12:11:55 PM 34.7461 -109.8119 223° Southwest 383 441 34,000  Level Albuquerque Center
Tue 12:12:57 PM 34.6850 -109.9067 232° Southwest 376 433 34,000  Level Albuquerque Center
Tue 12:13:59 PM 34.6400 -110.0400 248° West 377 434 34,000  Level Albuquerque Center
Tue 12:15:01 PM 34.6006 -110.1544 247° West 381 438 34,000  Level Albuquerque Center
Tue 12:16:03 PM 34.5542 -110.2883 247° West 383 441 34,000 -194 Level Albuquerque Center
Tue 12:17:05 PM 34.5075 -110.3917 241° Southwest 371 427 33,600 -484 Descending Albuquerque Center
Tue 12:18:07 PM 34.4694 -110.5047 248° West 381 438 33,000 -1,210 Descending Albuquerque Center
Tue 12:19:09 PM 34.4175 -110.6386 245° Southwest 370 426 31,100 -2,081 Descending Albuquerque Center
Tue 12:20:11 PM 34.3725 -110.7517 244° Southwest 373 429 28,700 -1,500 Descending Albuquerque Center
Tue 12:21:13 PM 34.3131 -110.8506 234° Southwest 365 420 28,000 -1,161 Descending Albuquerque Center
Tue 12:22:15 PM 34.2417 -110.9408 226° Southwest 368 423 26,300 -1,805 Descending Albuquerque Center
Tue 12:23:16 PM 34.1744 -111.0283 227° Southwest 362 417 24,300 -1,951 Descending Albuquerque Center
Tue 12:24:18 PM 34.1083 -111.1133 227° Southwest 352 405 22,300 -2,081 Descending Albuquerque Center
Tue 12:25:20 PM 34.0331 -111.2103 227° Southwest 337 388 20,000 -1,984 Descending Albuquerque Center
Tue 12:26:22 PM 33.9719 -111.2889 227° Southwest 325 374 18,200 -1,790 Descending Albuquerque Center
Tue 12:27:24 PM 33.9125 -111.3644 227° Southwest 311 358 16,300 -1,452 Descending Albuquerque Center
Tue 12:28:26 PM 33.8611 -111.4433 232° Southwest 300 345 15,200 -1,317 Descending Albuquerque Center
Tue 12:29:27 PM 33.8186 -111.5267 238° Southwest 293 337 13,600 -1,610 Descending Albuquerque Center
Tue 12:30:29 PM 33.7750 -111.6069 237° Southwest 286 329 11,900 -1,597 Descending Albuquerque Center
Tue 12:31:31 PM 33.7328 -111.6861 237° Southwest 280 322 10,300 -919 Descending Albuquerque Center
Tue 12:32:33 PM 33.6900 -111.7647 237° Southwest 280 322 10,000 -484 Descending Albuquerque Center
Tue 12:33:35 PM 33.6489 -111.8400 237° Southwest 271 312 9,300 -484 Descending Albuquerque Center
Tue 12:34:37 PM 33.6006 -111.9272 236° Southwest 261 300 9,000 -537 Descending Albuquerque Center
Tue 12:35:38 PM 33.5650 -111.9986 239° Southwest 251 289 8,200 -1,073 Descending Albuquerque Center
Tue 12:36:40 PM 33.5272 -112.0697 238° Southwest 252 290 6,800 -1,113 Descending Albuquerque Center
Tue 12:37:42 PM 33.5258 -112.1494 269° West 242 278 5,900 -1,161 Descending Albuquerque Center
Tue 12:38:44 PM 33.4878 -112.1778 212° Southwest 194 223 4,400 -1,355 Descending Albuquerque Center
Tue 12:39:46 PM 33.4486 -112.1394 141° Southeast 182 209 3,100 -1,065 Descending Albuquerque Center
Tue 12:40:48 PM 33.4314 -112.0903 113° Southeast 159 183 2,200 -927 Descending Albuquerque Center
Tue 12:41:49 PM 33.4317 -112.0325 90° East 146 168 1,200 -984 Descending Albuquerque Center

Login

Don't have an account? Register now (free) for customized features, flight alerts, and more!